createdAt,value
2023-05-03T00:01:13.032Z,102894.50
2023-05-03T00:06:16.144Z,102893.50
2023-05-03T00:11:17.977Z,102890.50
2023-05-03T00:16:20.411Z,102885.41
2023-05-03T00:21:22.355Z,102873.78
2023-05-03T00:26:24.042Z,102874.66
2023-05-03T00:31:25.750Z,102860.41
2023-05-03T00:36:28.329Z,102882.16
2023-05-03T00:41:29.893Z,102888.50
2023-05-03T00:46:31.641Z,102883.25
2023-05-03T00:51:33.868Z,102895.00
2023-05-03T00:56:47.840Z,102896.88
2023-05-03T01:01:53.613Z,102896.63
2023-05-03T01:07:08.647Z,102889.13
2023-05-03T01:12:21.375Z,102889.63
2023-05-03T01:17:30.004Z,102889.63
2023-05-03T01:22:39.183Z,102890.38
2023-05-03T01:27:42.303Z,102888.34
2023-05-03T01:33:35.552Z,102879.13
2023-05-03T01:38:39.672Z,102871.63
2023-05-03T01:43:43.733Z,102860.22
2023-05-03T01:48:45.349Z,102853.88
2023-05-03T01:53:47.054Z,102837.72
2023-05-03T01:58:50.744Z,102824.84
2023-05-03T02:03:53.534Z,102805.84
2023-05-03T02:08:55.540Z,102808.53
2023-05-03T02:13:57.225Z,102800.47
2023-05-03T02:18:59.692Z,102802.69
2023-05-03T02:24:01.913Z,102822.91
2023-05-03T02:29:03.895Z,102828.03
2023-05-03T02:34:07.778Z,102829.16
2023-05-03T02:39:10.736Z,102839.28
2023-05-03T02:44:12.525Z,102851.03
2023-05-03T02:49:14.266Z,102850.34
2023-05-03T02:54:16.821Z,102850.94
2023-05-03T02:59:19.353Z,102857.13
2023-05-03T03:04:24.151Z,102856.44
2023-05-03T03:09:26.116Z,102866.53
2023-05-03T03:14:28.192Z,102859.81
2023-05-03T03:19:29.983Z,102867.06
2023-05-03T03:24:31.889Z,102862.94
2023-05-03T03:29:35.352Z,102856.31
2023-05-03T03:34:39.318Z,102858.19
2023-05-03T03:39:41.196Z,102855.75
2023-05-03T03:44:43.043Z,102862.00
2023-05-03T03:49:44.911Z,102864.63
2023-05-03T03:54:47.913Z,102872.22
2023-05-03T03:59:51.747Z,102884.25
2023-05-03T04:04:53.542Z,102880.44
2023-05-03T04:09:56.654Z,102884.84
2023-05-03T04:14:59.777Z,102889.09
2023-05-03T04:20:11.101Z,102888.84
2023-05-03T04:25:14.917Z,102883.16
2023-05-03T04:30:20.213Z,102875.91
2023-05-03T04:35:25.163Z,102877.69
2023-05-03T04:40:27.486Z,102889.91
2023-05-03T04:45:37.505Z,102879.50
2023-05-03T04:50:41.219Z,102884.72
2023-05-03T04:55:45.253Z,102882.06
2023-05-03T05:00:46.929Z,102886.31
2023-05-03T05:05:56.913Z,102887.63
2023-05-03T05:10:59.483Z,102891.13
2023-05-03T05:16:05.994Z,102882.91
2023-05-03T05:21:08.109Z,102892.16
2023-05-03T05:26:10.987Z,102899.97
2023-05-03T05:31:13.700Z,102901.94
2023-05-03T05:36:15.977Z,102907.72
2023-05-03T05:41:18.984Z,102910.63
2023-05-03T05:46:21.561Z,102900.78
2023-05-03T05:51:26.708Z,102892.66
2023-05-03T05:56:29.516Z,102896.88
2023-05-03T06:01:32.262Z,102899.16
2023-05-03T06:06:35.105Z,102898.78
2023-05-03T06:11:38.329Z,102909.50
2023-05-03T06:16:41.262Z,102914.50
2023-05-03T06:21:43.106Z,102917.47
2023-05-03T06:26:46.133Z,102914.78
2023-05-03T06:31:48.124Z,102907.09
2023-05-03T06:36:51.788Z,102901.09
2023-05-03T06:41:53.690Z,102887.81
2023-05-03T06:46:55.605Z,102889.47
2023-05-03T06:51:57.621Z,102890.28
2023-05-03T06:57:01.792Z,102887.19
2023-05-03T07:02:03.548Z,102889.47
2023-05-03T07:07:06.542Z,102890.72
2023-05-03T07:12:08.221Z,102875.41
2023-05-03T07:17:11.353Z,102868.03
2023-05-03T07:22:13.026Z,102861.28
2023-05-03T07:27:15.537Z,102864.13
2023-05-03T07:32:17.217Z,102865.78
2023-05-03T07:37:18.919Z,102864.66
2023-05-03T07:42:20.728Z,102851.53
2023-05-03T07:47:26.394Z,102843.03
2023-05-03T07:52:27.981Z,102845.84
2023-05-03T07:57:29.584Z,102864.59
2023-05-03T08:02:31.395Z,102867.44
2023-05-03T08:07:33.376Z,102865.50
2023-05-03T08:12:36.180Z,102861.75
2023-05-03T08:17:45.817Z,102875.75
2023-05-03T08:22:47.538Z,102875.16
2023-05-03T08:27:53.327Z,102878.78
2023-05-03T08:32:54.980Z,102869.94
2023-05-03T08:37:56.760Z,102875.53
2023-05-03T08:43:02.191Z,102887.50
2023-05-03T08:48:04.705Z,102873.25
2023-05-03T08:53:06.450Z,102868.03
2023-05-03T08:58:12.599Z,102876.88
2023-05-03T09:03:14.477Z,102872.84
2023-05-03T09:08:17.236Z,102872.25
2023-05-03T09:13:19.416Z,102865.53
2023-05-03T09:18:21.778Z,102869.00
2023-05-03T09:23:26.258Z,102868.13
2023-05-03T09:28:28.074Z,102875.22
2023-05-03T09:33:29.835Z,102870.06
2023-05-03T09:38:33.789Z,102875.78
2023-05-03T09:43:38.578Z,102887.69
2023-05-03T09:48:41.237Z,102867.94
2023-05-03T09:53:43.126Z,102869.09
2023-05-03T09:58:44.815Z,102865.75
2023-05-03T10:03:52.957Z,102863.34
2023-05-03T10:09:06.144Z,102870.16
2023-05-03T10:14:08.080Z,102864.78
2023-05-03T10:19:58.658Z,102867.91
2023-05-03T10:25:00.539Z,102855.97
2023-05-03T10:30:03.258Z,102859.25
2023-05-03T10:35:15.757Z,102849.91
2023-05-03T10:40:19.580Z,102850.84
2023-05-03T10:45:28.696Z,102831.09
2023-05-03T10:50:30.440Z,102835.06
2023-05-03T10:55:32.335Z,102839.94
2023-05-03T11:00:39.178Z,102837.81
2023-05-03T11:05:40.944Z,102821.47
2023-05-03T11:10:44.533Z,102829.47
2023-05-03T11:15:48.406Z,102823.44
2023-05-03T11:20:50.848Z,102826.00
2023-05-03T11:25:52.784Z,102829.41
2023-05-03T11:30:54.872Z,102816.50
2023-05-03T11:35:57.037Z,102810.13
2023-05-03T11:41:00.143Z,102806.94
2023-05-03T11:46:02.146Z,102787.09
2023-05-03T11:51:09.387Z,102782.28
2023-05-03T11:56:17.981Z,102775.47
2023-05-03T12:01:24.235Z,102768.28
2023-05-03T12:06:32.177Z,102760.75
2023-05-03T12:11:43.684Z,102759.16
2023-05-03T12:16:50.911Z,102762.47
2023-05-03T12:26:57.876Z,102742.75
2023-05-03T12:32:03.205Z,102734.50
2023-05-03T12:37:06.591Z,102734.75
2023-05-03T12:42:09.375Z,102716.31
2023-05-03T12:47:19.690Z,102710.63
2023-05-03T12:57:31.150Z,102737.16
2023-05-03T13:07:42.487Z,102713.22
2023-05-03T13:12:45.685Z,102710.78
2023-05-03T13:17:48.529Z,102702.81
2023-05-03T13:22:52.766Z,102694.47
2023-05-03T13:27:54.705Z,102683.22
2023-05-03T13:32:56.480Z,102685.47
2023-05-03T13:37:58.148Z,102674.88
2023-05-03T13:42:59.907Z,102663.75
2023-05-03T13:48:18.260Z,102647.09
2023-05-03T13:53:21.049Z,102648.13
2023-05-03T13:58:22.769Z,102639.28
2023-05-03T14:03:25.078Z,102648.81
2023-05-03T14:08:26.882Z,102623.31
2023-05-03T14:13:32.901Z,102622.91
2023-05-03T14:18:39.991Z,102614.44
2023-05-03T14:23:46.903Z,102622.22
2023-05-03T14:28:48.526Z,102601.06
2023-05-03T14:33:52.068Z,102599.19
2023-05-03T14:38:53.734Z,102603.16
2023-05-03T14:43:56.145Z,102593.97
2023-05-03T14:48:57.952Z,102590.81
2023-05-03T14:53:59.899Z,102567.75
2023-05-03T14:59:01.872Z,102568.13
2023-05-03T15:04:07.956Z,102562.56
2023-05-03T15:09:12.075Z,102564.66
2023-05-03T15:14:13.828Z,102548.88
2023-05-03T15:19:15.484Z,102543.13
2023-05-03T15:24:18.161Z,102535.00
2023-05-03T15:29:21.560Z,102526.84
2023-05-03T15:34:23.425Z,102532.03
2023-05-03T15:39:25.217Z,102545.38
2023-05-03T15:44:26.860Z,102551.09
2023-05-03T15:49:28.639Z,102540.22
2023-05-03T15:54:30.582Z,102532.72
2023-05-03T15:59:32.381Z,102526.66
2023-05-03T16:04:37.229Z,102529.25
2023-05-03T16:09:38.984Z,102516.34
2023-05-03T16:14:43.363Z,102509.78
2023-05-03T16:19:45.124Z,102506.25
2023-05-03T16:24:47.347Z,102510.53
2023-05-03T16:29:49.083Z,102498.97
2023-05-03T16:34:53.409Z,102496.66
2023-05-03T16:39:55.573Z,102501.84
2023-05-03T16:44:57.558Z,102503.66
2023-05-03T16:50:02.824Z,102495.78
2023-05-03T16:55:06.436Z,102488.53
2023-05-03T17:00:10.185Z,102490.19
2023-05-03T17:05:13.700Z,102489.13
2023-05-03T17:10:15.915Z,102478.75
2023-05-03T17:19:13.662Z,102484.56
2023-05-03T17:24:15.669Z,102479.16
2023-05-03T17:29:17.409Z,102479.50
2023-05-03T17:34:20.671Z,102480.94
2023-05-03T17:39:24.781Z,102481.94
2023-05-03T17:44:27.175Z,102484.66
2023-05-03T17:49:30.065Z,102485.06
2023-05-03T17:54:32.868Z,102473.63
2023-05-03T17:59:34.618Z,102476.28
2023-05-03T18:04:36.310Z,102467.47
2023-05-03T18:09:38.229Z,102470.44
2023-05-03T18:14:39.945Z,102479.16
2023-05-03T18:19:44.806Z,102475.28
2023-05-03T18:24:46.526Z,102468.56
2023-05-03T18:29:49.066Z,102468.34
2023-05-03T18:34:51.244Z,102476.00
2023-05-03T18:39:52.917Z,102476.47
2023-05-03T18:44:54.646Z,102472.34
2023-05-03T18:49:56.689Z,102473.88
2023-05-03T18:54:58.398Z,102470.81
2023-05-03T19:00:01.474Z,102472.50
2023-05-03T19:05:03.677Z,102462.50
2023-05-03T19:10:06.694Z,102469.06
2023-05-03T19:15:09.189Z,102461.81
2023-05-03T19:20:12.068Z,102464.91
2023-05-03T19:25:14.995Z,102457.94
2023-05-03T19:30:16.798Z,102457.69
2023-05-03T19:35:18.509Z,102453.03
2023-05-03T19:40:21.707Z,102459.13
2023-05-03T19:45:23.992Z,102468.16
2023-05-03T19:50:25.773Z,102465.63
2023-05-03T19:55:27.454Z,102458.00
2023-05-03T20:00:29.926Z,102473.44
2023-05-03T20:05:31.642Z,102457.97
2023-05-03T20:10:36.395Z,102454.56
2023-05-03T20:15:38.081Z,102464.31
2023-05-03T20:20:39.807Z,102468.66
2023-05-03T20:25:41.591Z,102459.81
2023-05-03T20:30:43.397Z,102457.97
2023-05-03T20:35:45.208Z,102462.00
2023-05-03T20:40:46.910Z,102450.84
2023-05-03T20:45:48.674Z,102446.47
2023-05-03T20:50:53.117Z,102444.75
2023-05-03T20:55:56.433Z,102442.88
2023-05-03T21:00:58.330Z,102442.88
2023-05-03T21:06:00.193Z,102434.31
2023-05-03T21:11:02.234Z,102429.66
2023-05-03T21:16:04.548Z,102436.34
2023-05-03T21:21:06.366Z,102436.34
2023-05-03T21:26:08.115Z,102437.66
2023-05-03T21:31:10.206Z,102438.94
2023-05-03T21:36:12.656Z,102427.34
2023-05-03T21:41:14.282Z,102416.03
2023-05-03T21:46:15.998Z,102421.09
2023-05-03T21:51:22.338Z,102413.13
2023-05-03T21:56:23.970Z,102406.31
2023-05-03T22:01:25.637Z,102393.97
2023-05-03T22:06:27.349Z,102398.00
2023-05-03T22:11:29.202Z,102393.97
2023-05-03T22:16:31.080Z,102395.13
2023-05-03T22:21:32.899Z,102386.84
2023-05-03T22:26:34.587Z,102385.41
2023-05-03T22:31:36.370Z,102386.38
2023-05-03T22:36:38.386Z,102387.53
2023-05-03T22:41:40.536Z,102384.44
2023-05-03T22:46:43.822Z,102381.56
2023-05-03T22:51:46.134Z,102379.56
2023-05-03T22:56:47.942Z,102372.75
2023-05-03T23:01:51.853Z,102366.91
2023-05-03T23:06:53.639Z,102373.88
2023-05-03T23:11:56.619Z,102358.44
2023-05-03T23:16:58.399Z,102360.16
2023-05-03T23:22:00.199Z,102345.53
2023-05-03T23:27:01.937Z,102345.06
2023-05-03T23:32:04.304Z,102336.25
2023-05-03T23:37:06.507Z,102331.59
2023-05-03T23:42:08.134Z,102336.53
2023-05-03T23:47:10.007Z,102327.94
2023-05-03T23:52:11.724Z,102336.38
2023-05-03T23:57:13.301Z,102330.50
